Time;durP1;ratioP1;P1;durP2;ratioP2;P2;SDS_P1;SDS_P2;PMS_P1;PMS_P2;Temp;Humidity;BMP_temperature;BMP_pressure;BME280_temperature;BME280_humidity;BME280_pressure;Samples;Min_cycle;Max_cycle;Signal;HPM_P1;HPM_P2
2022/09/13 00:01:09;;;;;;;;;;;19.30;68.40;;;;;;5040448;28;20533;-68
2022/09/13 00:03:36;;;;;;;;;;;19.30;68.40;;;;;;5044072;28;20071;-68
2022/09/13 00:06:09;;;;;;;;;;;19.30;68.50;;;;;;5046921;28;20478;-68
2022/09/13 00:08:37;;;;;;;;;;;19.30;68.60;;;;;;5041160;28;20030;-68
2022/09/13 00:11:04;;;;;;;;;;;19.20;68.70;;;;;;5045214;28;19983;-68
2022/09/13 00:13:31;;;;;;;;;;;19.20;68.70;;;;;;5044384;28;19979;-69
2022/09/13 00:16:00;;;;;;;;;;;19.20;68.80;;;;;;5045757;28;20038;-69
2022/09/13 00:18:26;;;;;;;;;;;19.20;68.80;;;;;;5043539;28;20356;-68
2022/09/13 00:21:03;;;;;;;;;;;19.10;68.90;;;;;;5044536;28;20046;-69
2022/09/13 00:23:29;;;;;;;;;;;19.10;69.00;;;;;;5040183;28;19979;-68
2022/09/13 00:26:03;;;;;;;;;;;19.10;69.00;;;;;;5043693;28;19983;-68
2022/09/13 00:28:30;;;;;;;;;;;19.00;69.00;;;;;;5043373;28;20436;-67
2022/09/13 00:30:59;;;;;;;;;;;19.00;69.10;;;;;;5044678;28;19995;-68
2022/09/13 00:33:25;;;;;;;;;;;19.00;69.30;;;;;;5040592;28;19979;-67
2022/09/13 00:35:52;;;;;;;;;;;18.90;69.30;;;;;;5044598;28;19980;-68
2022/09/13 00:38:18;;;;;;;;;;;18.90;69.30;;;;;;5042013;28;19988;-67
2022/09/13 00:40:45;;;;;;;;;;;18.90;69.30;;;;;;5039795;28;20707;-68
2022/09/13 00:43:16;;;;;;;;;;;18.90;69.40;;;;;;5044173;28;19988;-68
2022/09/13 00:45:42;;;;;;;;;;;18.80;69.40;;;;;;5044821;28;19999;-68
2022/09/13 00:48:13;;;;;;;;;;;18.80;69.40;;;;;;5042693;28;20003;-67
2022/09/13 00:50:41;;;;;;;;;;;18.70;69.30;;;;;;5047529;28;20029;-68
2022/09/13 00:53:09;;;;;;;;;;;18.70;69.30;;;;;;5045254;28;19979;-66
2022/09/13 00:55:38;;;;;;;;;;;18.70;69.40;;;;;;5041128;28;19999;-68
2022/09/13 00:58:08;;;;;;;;;;;18.70;69.40;;;;;;5046255;28;19976;-68
2022/09/13 01:00:36;;;;;;;;;;;18.60;69.40;;;;;;5041070;28;20049;-68
2022/09/13 01:03:05;;;;;;;;;;;18.60;69.50;;;;;;5044084;28;19972;-68
2022/09/13 01:05:33;;;;;;;;;;;18.60;69.50;;;;;;5042380;28;20003;-68
2022/09/13 01:08:00;;;;;;;;;;;18.50;69.50;;;;;;5043371;28;19976;-68
2022/09/13 01:10:30;;;;;;;;;;;18.50;69.60;;;;;;5040699;28;19986;-68
2022/09/13 01:13:00;;;;;;;;;;;18.50;69.60;;;;;;5043399;28;20082;-68
2022/09/13 01:15:27;;;;;;;;;;;18.50;69.70;;;;;;5042618;28;21233;-69
2022/09/13 01:17:55;;;;;;;;;;;18.50;69.80;;;;;;5043838;28;20581;-68
2022/09/13 01:20:25;;;;;;;;;;;18.40;69.80;;;;;;5041751;28;20000;-68
2022/09/13 01:23:10;;;;;;;;;;;18.40;69.90;;;;;;5040726;28;19976;-68
2022/09/13 01:25:54;;;;;;;;;;;18.40;69.90;;;;;;5038338;28;20061;-68
2022/09/13 01:28:30;;;;;;;;;;;18.30;70.10;;;;;;5042859;28;20442;-68
2022/09/13 01:31:01;;;;;;;;;;;18.30;70.20;;;;;;5038218;28;19991;-68
2022/09/13 01:33:45;;;;;;;;;;;18.30;70.30;;;;;;5044390;28;20025;-68
2022/09/13 01:36:22;;;;;;;;;;;18.30;70.40;;;;;;5043954;28;20462;-67
2022/09/13 01:38:58;;;;;;;;;;;18.30;70.50;;;;;;5043234;28;20098;-68
2022/09/13 01:41:34;;;;;;;;;;;18.20;70.60;;;;;;5040605;28;20002;-69
2022/09/13 01:44:06;;;;;;;;;;;18.20;70.70;;;;;;5043531;28;19998;-69
2022/09/13 01:46:37;;;;;;;;;;;18.20;70.80;;;;;;5042775;28;20038;-68
2022/09/13 01:49:12;;;;;;;;;;;18.20;71.00;;;;;;5042231;28;20443;-67
2022/09/13 01:51:41;;;;;;;;;;;18.10;71.00;;;;;;5043856;28;19976;-68
2022/09/13 01:54:12;;;;;;;;;;;18.10;71.10;;;;;;5040784;28;20009;-66
2022/09/13 01:56:40;;;;;;;;;;;18.10;71.10;;;;;;5043645;28;19977;-68
2022/09/13 01:59:14;;;;;;;;;;;18.10;71.10;;;;;;5039098;28;20075;-68
2022/09/13 02:01:44;;;;;;;;;;;18.00;71.20;;;;;;5039507;28;19999;-68
2022/09/13 02:04:13;;;;;;;;;;;18.00;71.20;;;;;;5047348;28;19992;-67
2022/09/13 02:06:41;;;;;;;;;;;18.00;71.30;;;;;;5041819;28;19980;-68
2022/09/13 02:09:09;;;;;;;;;;;18.00;71.30;;;;;;5039845;28;20002;-65
2022/09/13 02:11:36;;;;;;;;;;;18.00;71.40;;;;;;5036789;28;19976;-68
2022/09/13 02:14:06;;;;;;;;;;;17.90;71.40;;;;;;5043133;28;19995;-68
2022/09/13 02:16:34;;;;;;;;;;;17.90;71.60;;;;;;5042176;28;20540;-68
2022/09/13 02:19:05;;;;;;;;;;;17.90;71.60;;;;;;5040788;28;19979;-68
2022/09/13 02:21:34;;;;;;;;;;;17.90;71.70;;;;;;5043078;28;19992;-68
2022/09/13 02:24:05;;;;;;;;;;;17.90;71.70;;;;;;5042497;28;20053;-68
2022/09/13 02:26:34;;;;;;;;;;;17.80;71.80;;;;;;5038201;28;20355;-68
2022/09/13 02:29:05;;;;;;;;;;;17.80;71.80;;;;;;5041960;28;19980;-69
2022/09/13 02:31:34;;;;;;;;;;;17.80;71.80;;;;;;5042266;28;19995;-68
2022/09/13 02:34:03;;;;;;;;;;;17.80;71.80;;;;;;5039270;28;20094;-68
2022/09/13 02:36:34;;;;;;;;;;;17.70;71.80;;;;;;5043265;28;19980;-69
2022/09/13 02:39:02;;;;;;;;;;;17.70;72.00;;;;;;5038941;28;19976;-68
2022/09/13 02:41:32;;;;;;;;;;;17.70;72.00;;;;;;5039697;28;19995;-68
2022/09/13 02:44:02;;;;;;;;;;;17.70;72.00;;;;;;5043940;28;20654;-68
2022/09/13 02:46:34;;;;;;;;;;;17.70;72.10;;;;;;5042335;28;19999;-68
2022/09/13 02:49:06;;;;;;;;;;;17.70;72.10;;;;;;5038178;28;19984;-68
2022/09/13 02:51:40;;;;;;;;;;;17.60;72.10;;;;;;5048340;28;19983;-68
2022/09/13 02:54:13;;;;;;;;;;;17.60;72.30;;;;;;5041671;28;20022;-68
2022/09/13 02:56:43;;;;;;;;;;;17.60;72.20;;;;;;5042117;28;19979;-68
2022/09/13 02:59:13;;;;;;;;;;;17.60;72.30;;;;;;5038336;28;20481;-68
2022/09/13 03:01:41;;;;;;;;;;;17.60;72.30;;;;;;5039333;28;20006;-68
2022/09/13 03:04:08;;;;;;;;;;;17.50;72.50;;;;;;5042747;28;19988;-65
2022/09/13 03:06:37;;;;;;;;;;;17.50;72.50;;;;;;5042354;28;20593;-68
2022/09/13 03:09:05;;;;;;;;;;;17.50;72.70;;;;;;5041635;28;19980;-65
2022/09/13 03:11:36;;;;;;;;;;;17.50;72.90;;;;;;5039519;28;19979;-68
2022/09/13 03:14:16;;;;;;;;;;;17.40;73.00;;;;;;5044758;28;20074;-68
2022/09/13 03:16:47;;;;;;;;;;;17.40;72.90;;;;;;5046590;28;20426;-68
2022/09/13 03:19:21;;;;;;;;;;;17.40;72.90;;;;;;5043150;28;19984;-68
2022/09/13 03:21:58;;;;;;;;;;;17.40;73.00;;;;;;5045847;28;20835;-68
2022/09/13 03:24:28;;;;;;;;;;;17.40;73.00;;;;;;5044312;28;19995;-68
2022/09/13 03:27:03;;;;;;;;;;;17.40;73.00;;;;;;5043769;28;19989;-69
2022/09/13 03:29:33;;;;;;;;;;;17.30;72.90;;;;;;5044880;28;19981;-68
2022/09/13 03:32:14;;;;;;;;;;;17.30;72.90;;;;;;5041186;28;19987;-68
2022/09/13 03:34:45;;;;;;;;;;;17.30;73.10;;;;;;5045591;28;19991;-67
2022/09/13 03:37:17;;;;;;;;;;;17.30;73.20;;;;;;5044837;28;20405;-68
2022/09/13 03:39:48;;;;;;;;;;;17.30;73.30;;;;;;5042004;28;19984;-68
2022/09/13 03:42:18;;;;;;;;;;;17.20;73.30;;;;;;5044855;28;19979;-67
2022/09/13 03:44:47;;;;;;;;;;;17.20;73.40;;;;;;5047117;28;20066;-68
2022/09/13 03:47:14;;;;;;;;;;;17.20;73.30;;;;;;5042359;28;20069;-68
2022/09/13 03:49:40;;;;;;;;;;;17.10;73.20;;;;;;5043537;28;20536;-68
2022/09/13 03:52:07;;;;;;;;;;;17.20;73.30;;;;;;5045536;28;19979;-68
2022/09/13 03:54:37;;;;;;;;;;;17.10;73.30;;;;;;5041716;28;20010;-68
2022/09/13 03:57:07;;;;;;;;;;;17.10;73.30;;;;;;5041305;28;19983;-68
2022/09/13 03:59:35;;;;;;;;;;;17.10;73.50;;;;;;5045225;28;20103;-68
2022/09/13 04:02:02;;;;;;;;;;;17.10;73.40;;;;;;5043337;28;20481;-68
2022/09/13 04:04:28;;;;;;;;;;;17.10;73.50;;;;;;5042246;28;19997;-68
2022/09/13 04:06:55;;;;;;;;;;;17.00;73.60;;;;;;5045728;28;20061;-68
2022/09/13 04:09:22;;;;;;;;;;;17.00;73.60;;;;;;5043059;28;20454;-67
2022/09/13 04:11:50;;;;;;;;;;;17.00;73.70;;;;;;5044148;28;20084;-68
2022/09/13 04:14:16;;;;;;;;;;;16.90;73.70;;;;;;5046359;28;20053;-68
2022/09/13 04:16:43;;;;;;;;;;;17.00;73.80;;;;;;5042193;28;20475;-68
2022/09/13 04:19:10;;;;;;;;;;;17.00;73.80;;;;;;5041786;28;20681;-68
2022/09/13 04:21:37;;;;;;;;;;;16.90;73.90;;;;;;5044980;28;19992;-68
2022/09/13 04:24:03;;;;;;;;;;;16.90;73.90;;;;;;5044312;28;20015;-68
2022/09/13 04:26:30;;;;;;;;;;;16.90;74.00;;;;;;5042317;28;19976;-69
2022/09/13 04:28:58;;;;;;;;;;;16.90;74.00;;;;;;5043946;28;19975;-68
2022/09/13 04:31:24;;;;;;;;;;;16.90;74.10;;;;;;5044040;28;20007;-68
2022/09/13 04:33:51;;;;;;;;;;;16.90;74.10;;;;;;5039814;28;20345;-68
2022/09/13 04:36:17;;;;;;;;;;;16.90;74.10;;;;;;5043473;28;20014;-68
2022/09/13 04:38:46;;;;;;;;;;;16.80;74.10;;;;;;5044351;28;19976;-67
2022/09/13 04:41:12;;;;;;;;;;;16.80;74.10;;;;;;5042267;28;20748;-68
2022/09/13 04:43:39;;;;;;;;;;;16.80;74.20;;;;;;5043852;28;19976;-68
2022/09/13 04:46:07;;;;;;;;;;;16.80;74.10;;;;;;5043415;28;20049;-68
2022/09/13 04:48:34;;;;;;;;;;;16.80;74.20;;;;;;5043110;28;19980;-68
2022/09/13 04:51:03;;;;;;;;;;;16.80;74.20;;;;;;5039960;28;19975;-69
2022/09/13 04:53:29;;;;;;;;;;;16.70;74.30;;;;;;5042423;28;19987;-69
2022/09/13 04:55:59;;;;;;;;;;;16.70;74.30;;;;;;5042468;28;19980;-68
2022/09/13 04:58:26;;;;;;;;;;;16.80;74.40;;;;;;5041331;28;19980;-67
2022/09/13 05:00:55;;;;;;;;;;;16.70;74.40;;;;;;5042281;28;20050;-68
2022/09/13 05:03:23;;;;;;;;;;;16.60;75.40;;;;;;5032874;28;19980;-68
2022/09/13 05:05:50;;;;;;;;;;;16.40;76.40;;;;;;5037852;28;20030;-68
2022/09/13 05:08:16;;;;;;;;;;;16.40;77.00;;;;;;5040387;28;20211;-69
2022/09/13 05:10:43;;;;;;;;;;;16.40;77.20;;;;;;5037208;28;19976;-68
2022/09/13 05:13:09;;;;;;;;;;;16.40;77.20;;;;;;5042885;28;20030;-68
2022/09/13 05:15:36;;;;;;;;;;;16.40;77.10;;;;;;5044492;28;19996;-69
2022/09/13 05:18:02;;;;;;;;;;;16.40;77.00;;;;;;5038956;28;19983;-69
2022/09/13 05:20:30;;;;;;;;;;;16.40;76.80;;;;;;5038648;28;19980;-70
2022/09/13 05:22:57;;;;;;;;;;;16.40;76.80;;;;;;5044322;28;19976;-69
2022/09/13 05:25:23;;;;;;;;;;;16.40;76.70;;;;;;5038851;28;19996;-68
2022/09/13 05:27:50;;;;;;;;;;;16.40;76.70;;;;;;5045820;28;19975;-69
2022/09/13 05:30:17;;;;;;;;;;;16.40;76.60;;;;;;5043754;28;19979;-68
2022/09/13 05:32:43;;;;;;;;;;;16.40;76.70;;;;;;5044126;28;19980;-67
2022/09/13 05:35:10;;;;;;;;;;;16.40;76.70;;;;;;5043003;28;19999;-70
2022/09/13 05:37:38;;;;;;;;;;;16.40;76.50;;;;;;5043457;28;19979;-69
2022/09/13 05:40:05;;;;;;;;;;;16.40;76.60;;;;;;5042251;28;19980;-70
2022/09/13 05:42:31;;;;;;;;;;;16.30;76.50;;;;;;5044756;28;20000;-70
2022/09/13 05:44:58;;;;;;;;;;;16.40;76.60;;;;;;5043445;28;20807;-70
2022/09/13 05:47:24;;;;;;;;;;;16.40;76.60;;;;;;5045658;28;20046;-70
2022/09/13 05:49:51;;;;;;;;;;;16.40;76.60;;;;;;5039328;28;20045;-70
2022/09/13 05:52:17;;;;;;;;;;;16.40;76.60;;;;;;5044054;28;19980;-68
2022/09/13 05:54:45;;;;;;;;;;;16.30;76.50;;;;;;5042654;28;20712;-71
2022/09/13 05:57:12;;;;;;;;;;;16.30;76.40;;;;;;5043609;28;19976;-70
2022/09/13 05:59:39;;;;;;;;;;;16.30;76.60;;;;;;5044197;28;19976;-70
2022/09/13 06:02:05;;;;;;;;;;;16.30;76.60;;;;;;5043303;28;19999;-70
2022/09/13 06:04:32;;;;;;;;;;;16.30;76.70;;;;;;5035641;28;19992;-71
2022/09/13 06:06:58;;;;;;;;;;;16.30;76.70;;;;;;5043537;28;19979;-69
2022/09/13 06:09:25;;;;;;;;;;;16.30;76.70;;;;;;5039948;28;19984;-71
2022/09/13 06:11:53;;;;;;;;;;;16.30;76.70;;;;;;5039151;28;19976;-69
2022/09/13 06:14:19;;;;;;;;;;;16.30;76.80;;;;;;5043668;28;19995;-69
2022/09/13 06:16:46;;;;;;;;;;;16.30;76.80;;;;;;5041894;28;20022;-69
2022/09/13 06:19:12;;;;;;;;;;;16.30;77.00;;;;;;5040660;28;19980;-69
2022/09/13 06:21:39;;;;;;;;;;;16.30;76.90;;;;;;5043613;28;20483;-70
2022/09/13 06:24:06;;;;;;;;;;;16.30;76.90;;;;;;5043263;28;20002;-69
2022/09/13 06:26:33;;;;;;;;;;;16.30;77.00;;;;;;5035974;28;20022;-67
2022/09/13 06:29:01;;;;;;;;;;;16.30;77.10;;;;;;5042520;28;20648;-68
2022/09/13 06:31:28;;;;;;;;;;;16.30;77.00;;;;;;5043264;28;19999;-70
2022/09/13 06:33:56;;;;;;;;;;;16.20;77.00;;;;;;5043906;28;19995;-70
2022/09/13 06:36:23;;;;;;;;;;;16.20;77.10;;;;;;5045550;28;19986;-69
2022/09/13 06:38:49;;;;;;;;;;;16.30;77.10;;;;;;5044994;28;19983;-70
2022/09/13 06:41:18;;;;;;;;;;;16.30;77.20;;;;;;5040382;28;20019;-69
2022/09/13 06:43:44;;;;;;;;;;;16.30;77.20;;;;;;5041881;28;20137;-70
2022/09/13 06:46:13;;;;;;;;;;;16.30;77.20;;;;;;5042544;28;20006;-70
2022/09/13 06:48:41;;;;;;;;;;;16.30;77.20;;;;;;5042064;28;19971;-70
2022/09/13 06:51:08;;;;;;;;;;;16.30;77.20;;;;;;5046600;28;20030;-70
2022/09/13 06:53:35;;;;;;;;;;;16.30;77.20;;;;;;5047542;28;20032;-70
2022/09/13 06:56:02;;;;;;;;;;;16.30;77.90;;;;;;5046979;28;19976;-70
2022/09/13 06:58:30;;;;;;;;;;;16.20;77.20;;;;;;5045639;28;20440;-69
2022/09/13 07:01:05;;;;;;;;;;;16.30;77.20;;;;;;5049577;28;20003;-70
2022/09/13 07:03:33;;;;;;;;;;;16.20;77.20;;;;;;5055264;28;20058;-70
2022/09/13 07:06:00;;;;;;;;;;;16.30;77.20;;;;;;5044328;28;20422;-70
2022/09/13 07:08:26;;;;;;;;;;;16.30;77.10;;;;;;5044101;28;19983;-71
2022/09/13 07:10:57;;;;;;;;;;;16.30;77.00;;;;;;5040901;28;20021;-70
2022/09/13 07:13:23;;;;;;;;;;;16.30;77.00;;;;;;5051264;28;19979;-67
2022/09/13 07:15:50;;;;;;;;;;;16.40;77.00;;;;;;5047917;28;19991;-70
2022/09/13 07:18:16;;;;;;;;;;;16.40;77.00;;;;;;5040753;28;19984;-70
2022/09/13 07:20:44;;;;;;;;;;;16.30;76.80;;;;;;5041757;28;19987;-72
2022/09/13 07:23:11;;;;;;;;;;;16.40;76.80;;;;;;5047072;28;20000;-70
2022/09/13 07:25:37;;;;;;;;;;;16.40;76.80;;;;;;5040307;28;20380;-69
2022/09/13 07:28:04;;;;;;;;;;;16.40;76.70;;;;;;5047800;28;20022;-70
2022/09/13 07:30:30;;;;;;;;;;;16.40;76.70;;;;;;5045902;28;19999;-70
2022/09/13 07:32:57;;;;;;;;;;;16.40;76.70;;;;;;5045276;28;20404;-70
2022/09/13 07:35:23;;;;;;;;;;;16.40;76.70;;;;;;5042097;28;19996;-69
2022/09/13 07:37:51;;;;;;;;;;;16.50;76.60;;;;;;5040211;28;19976;-71
2022/09/13 07:40:18;;;;;;;;;;;16.50;76.70;;;;;;5041266;28;19929;-70
2022/09/13 07:42:44;;;;;;;;;;;16.50;77.30;;;;;;5046050;28;19935;-70
2022/09/13 07:45:11;;;;;;;;;;;16.50;77.30;;;;;;5043829;28;19959;-70
2022/09/13 07:47:38;;;;;;;;;;;16.50;77.40;;;;;;5046285;28;20027;-70
2022/09/13 07:50:05;;;;;;;;;;;16.50;77.40;;;;;;5037646;28;19944;-69
2022/09/13 07:52:35;;;;;;;;;;;16.50;77.50;;;;;;5045788;28;20256;-70
2022/09/13 07:55:03;;;;;;;;;;;16.60;77.50;;;;;;5044896;28;19955;-70
2022/09/13 07:57:30;;;;;;;;;;;16.60;77.40;;;;;;5045745;28;19929;-70
2022/09/13 07:59:56;;;;;;;;;;;16.60;77.30;;;;;;5045174;28;19928;-70
2022/09/13 08:02:23;;;;;;;;;;;16.60;77.70;;;;;;5039666;28;20010;-70
2022/09/13 08:04:49;;;;;;;;;;;16.60;77.70;;;;;;5045474;28;20304;-71
2022/09/13 08:07:16;;;;;;;;;;;16.60;77.60;;;;;;5045775;28;19935;-69
2022/09/13 08:09:42;;;;;;;;;;;16.70;77.40;;;;;;5041933;28;19929;-70
2022/09/13 08:12:10;;;;;;;;;;;16.70;77.30;;;;;;5042199;28;19929;-69
2022/09/13 08:14:37;;;;;;;;;;;16.70;77.20;;;;;;5045188;28;19936;-70
2022/09/13 08:17:03;;;;;;;;;;;16.70;77.00;;;;;;5042043;28;20157;-70
2022/09/13 08:19:30;;;;;;;;;;;16.70;76.80;;;;;;5044910;28;20588;-70
2022/09/13 08:21:56;;;;;;;;;;;16.80;76.90;;;;;;5045571;28;19928;-70
2022/09/13 08:24:23;;;;;;;;;;;16.70;76.90;;;;;;5045402;28;19975;-69
2022/09/13 08:26:50;;;;;;;;;;;16.80;76.90;;;;;;5038531;28;19928;-70
2022/09/13 08:29:18;;;;;;;;;;;16.80;76.70;;;;;;5045050;28;20103;-70
2022/09/13 08:31:45;;;;;;;;;;;16.80;76.60;;;;;;5045444;28;19935;-70
2022/09/13 08:34:13;;;;;;;;;;;16.90;76.50;;;;;;5047887;28;19929;-70
2022/09/13 08:36:40;;;;;;;;;;;16.90;76.30;;;;;;5042172;28;19933;-69
2022/09/13 08:39:07;;;;;;;;;;;16.90;76.30;;;;;;5045203;28;20555;-70
2022/09/13 08:41:46;;;;;;;;;;;16.90;76.20;;;;;;5036933;28;20304;-70
2022/09/13 08:44:16;;;;;;;;;;;16.90;76.20;;;;;;5041665;28;19937;-70
2022/09/13 08:46:45;;;;;;;;;;;17.00;76.20;;;;;;5041252;28;19928;-69
2022/09/13 08:49:13;;;;;;;;;;;17.00;76.00;;;;;;5046215;28;20385;-70
2022/09/13 08:51:41;;;;;;;;;;;17.10;76.00;;;;;;5043408;28;21096;-70
2022/09/13 08:54:10;;;;;;;;;;;17.10;75.90;;;;;;5046676;28;19932;-67
2022/09/13 08:56:41;;;;;;;;;;;17.10;75.80;;;;;;5046265;28;21467;-71
2022/09/13 08:59:18;;;;;;;;;;;17.20;75.70;;;;;;5040731;28;19933;-71
2022/09/13 09:01:50;;;;;;;;;;;17.20;75.50;;;;;;5048081;28;20629;-70
2022/09/13 09:04:28;;;;;;;;;;;17.30;75.50;;;;;;5044561;28;19939;-70
2022/09/13 09:07:01;;;;;;;;;;;17.30;75.40;;;;;;5037204;28;20035;-70
2022/09/13 09:09:31;;;;;;;;;;;17.40;75.40;;;;;;5043069;28;20747;-68
2022/09/13 09:12:01;;;;;;;;;;;17.40;75.20;;;;;;5040148;28;19929;-70
2022/09/13 09:14:31;;;;;;;;;;;17.50;75.10;;;;;;5044154;28;19937;-70
2022/09/13 09:17:00;;;;;;;;;;;17.50;74.80;;;;;;5042403;28;19929;-70
2022/09/13 09:19:33;;;;;;;;;;;17.60;74.70;;;;;;5039292;28;19932;-71
2022/09/13 09:22:01;;;;;;;;;;;17.60;74.50;;;;;;5044791;28;20016;-70
2022/09/13 09:24:35;;;;;;;;;;;17.70;74.30;;;;;;5044123;28;19944;-67
2022/09/13 09:27:02;;;;;;;;;;;17.80;74.10;;;;;;5040180;28;20451;-70
2022/09/13 09:29:31;;;;;;;;;;;17.80;74.00;;;;;;5044072;28;19929;-70
2022/09/13 09:32:08;;;;;;;;;;;17.90;73.90;;;;;;5043487;28;19932;-71
2022/09/13 09:34:44;;;;;;;;;;;17.90;73.80;;;;;;5045870;28;20373;-70
2022/09/13 09:37:15;;;;;;;;;;;18.00;73.70;;;;;;5043403;28;20041;-69
2022/09/13 09:39:42;;;;;;;;;;;18.10;73.60;;;;;;5042385;28;20277;-69
2022/09/13 09:42:10;;;;;;;;;;;18.10;73.70;;;;;;5044281;28;19976;-67
2022/09/13 09:44:39;;;;;;;;;;;18.20;73.60;;;;;;5042770;28;19933;-70
2022/09/13 09:47:14;;;;;;;;;;;18.20;73.50;;;;;;5043671;28;19933;-70
2022/09/13 09:52:30;;;;;;;;;;;18.30;73.10;;;;;;5043911;28;19931;-69
2022/09/13 09:55:00;;;;;;;;;;;18.40;73.10;;;;;;5043067;28;21285;-70
2022/09/13 09:57:41;;;;;;;;;;;18.40;72.80;;;;;;5045071;28;20020;-70
2022/09/13 10:00:10;;;;;;;;;;;18.50;72.70;;;;;;5042258;28;20322;-67
2022/09/13 10:02:43;;;;;;;;;;;18.60;72.50;;;;;;5044006;28;19928;-70
2022/09/13 10:05:11;;;;;;;;;;;18.60;72.50;;;;;;5037832;28;19951;-71
2022/09/13 10:07:38;;;;;;;;;;;18.60;72.30;;;;;;5043679;28;20359;-70
2022/09/13 10:10:07;;;;;;;;;;;18.70;72.20;;;;;;5035180;28;19952;-70
2022/09/13 10:12:35;;;;;;;;;;;18.70;72.30;;;;;;5030666;28;20401;-70
2022/09/13 10:15:06;;;;;;;;;;;18.80;72.30;;;;;;5040124;28;19944;-69
2022/09/13 10:17:33;;;;;;;;;;;18.80;72.20;;;;;;5036945;28;19935;-69
2022/09/13 10:20:03;;;;;;;;;;;18.90;72.10;;;;;;5043674;28;19982;-69
2022/09/13 10:22:30;;;;;;;;;;;19.00;72.00;;;;;;5043064;28;20040;-69
2022/09/13 10:25:12;;;;;;;;;;;19.00;71.90;;;;;;5045107;28;20255;-69
2022/09/13 10:27:41;;;;;;;;;;;19.10;71.60;;;;;;5050422;28;19929;-70
2022/09/13 10:30:23;;;;;;;;;;;19.10;71.50;;;;;;5049173;28;20436;-68
2022/09/13 10:32:54;;;;;;;;;;;19.20;71.40;;;;;;5048559;28;19983;-70
2022/09/13 10:35:23;;;;;;;;;;;19.30;71.30;;;;;;5050700;28;21117;-68
2022/09/13 10:37:51;;;;;;;;;;;19.30;71.10;;;;;;5044151;28;19928;-70
2022/09/13 10:40:19;;;;;;;;;;;19.30;71.10;;;;;;5047624;28;19933;-69
2022/09/13 10:42:50;;;;;;;;;;;19.40;70.90;;;;;;5050158;28;19929;-70
2022/09/13 10:45:20;;;;;;;;;;;19.50;70.90;;;;;;5048134;28;19936;-70
2022/09/13 10:47:48;;;;;;;;;;;19.50;70.90;;;;;;5049764;28;19998;-71
2022/09/13 10:50:19;;;;;;;;;;;19.50;70.80;;;;;;5046035;28;19928;-70
2022/09/13 10:52:48;;;;;;;;;;;19.60;70.80;;;;;;5051074;28;19997;-70
2022/09/13 10:55:23;;;;;;;;;;;19.60;70.80;;;;;;5048446;28;19933;-69
2022/09/13 10:57:50;;;;;;;;;;;19.70;71.00;;;;;;5049219;28;20476;-71
2022/09/13 11:00:18;;;;;;;;;;;19.70;71.70;;;;;;5049745;28;19933;-70
2022/09/13 11:03:02;;;;;;;;;;;19.70;70.90;;;;;;5050101;28;20304;-70
2022/09/13 11:05:31;;;;;;;;;;;19.70;70.80;;;;;;5048100;28;19991;-70
2022/09/13 11:08:06;;;;;;;;;;;19.70;70.60;;;;;;5043370;28;19959;-70
2022/09/13 11:10:36;;;;;;;;;;;19.80;70.60;;;;;;5035997;28;19929;-70
2022/09/13 11:13:07;;;;;;;;;;;19.80;70.60;;;;;;5050060;28;19928;-70
2022/09/13 11:15:40;;;;;;;;;;;19.80;70.30;;;;;;5043016;28;19929;-70
2022/09/13 11:18:19;;;;;;;;;;;19.90;70.30;;;;;;5049568;28;20044;-70
2022/09/13 11:20:52;;;;;;;;;;;19.90;70.20;;;;;;5041613;28;20416;-70
2022/09/13 11:23:36;;;;;;;;;;;20.00;70.20;;;;;;5049440;28;19940;-70
2022/09/13 11:26:08;;;;;;;;;;;20.00;70.00;;;;;;5046959;28;19935;-70
2022/09/13 11:28:40;;;;;;;;;;;20.10;69.90;;;;;;5056856;28;20445;-70
2022/09/13 11:31:13;;;;;;;;;;;20.10;69.80;;;;;;5047846;28;19935;-70
2022/09/13 11:33:45;;;;;;;;;;;20.20;69.80;;;;;;5049676;28;20034;-70
2022/09/13 11:36:22;;;;;;;;;;;20.20;69.60;;;;;;5047555;28;20002;-71
2022/09/13 11:38:55;;;;;;;;;;;20.20;69.40;;;;;;5046389;28;19936;-70
2022/09/13 11:41:28;;;;;;;;;;;20.30;69.40;;;;;;5044436;28;19986;-70
2022/09/13 11:44:08;;;;;;;;;;;20.30;69.40;;;;;;5045862;28;19929;-69
2022/09/13 11:46:38;;;;;;;;;;;20.30;69.20;;;;;;5045420;28;19933;-70
2022/09/13 11:49:31;;;;;;;;;;;20.40;69.00;;;;;;5045418;28;20015;-71
2022/09/13 11:52:03;;;;;;;;;;;20.40;69.00;;;;;;5046131;28;19949;-71
2022/09/13 11:54:36;;;;;;;;;;;20.50;68.90;;;;;;5044334;28;19935;-67
2022/09/13 11:57:05;;;;;;;;;;;20.50;68.80;;;;;;5047776;28;19935;-70
2022/09/13 11:59:36;;;;;;;;;;;20.60;68.70;;;;;;5045230;28;19944;-70
2022/09/13 12:02:04;;;;;;;;;;;20.60;68.70;;;;;;5045949;28;19929;-70
2022/09/13 12:04:34;;;;;;;;;;;20.60;68.70;;;;;;5043506;28;19935;-70
2022/09/13 12:07:02;;;;;;;;;;;20.60;68.50;;;;;;5041057;28;19955;-69
2022/09/13 12:09:30;;;;;;;;;;;20.70;68.40;;;;;;5045042;28;19980;-71
2022/09/13 12:12:00;;;;;;;;;;;20.80;68.40;;;;;;5040821;28;20463;-71
2022/09/13 12:14:30;;;;;;;;;;;20.80;68.20;;;;;;5045619;28;20000;-71
2022/09/13 12:16:58;;;;;;;;;;;20.80;68.10;;;;;;5045550;28;20374;-71
2022/09/13 12:19:28;;;;;;;;;;;20.90;68.00;;;;;;5042892;28;20294;-69
2022/09/13 12:21:56;;;;;;;;;;;20.90;67.90;;;;;;5040520;28;19982;-69
2022/09/13 12:24:27;;;;;;;;;;;21.00;67.70;;;;;;5044867;28;20386;-70
2022/09/13 12:26:56;;;;;;;;;;;21.10;67.60;;;;;;5040624;28;19980;-70
2022/09/13 12:29:27;;;;;;;;;;;21.20;67.50;;;;;;5039137;28;20534;-70
2022/09/13 12:31:55;;;;;;;;;;;21.30;67.40;;;;;;5044368;28;19992;-70
2022/09/13 12:34:24;;;;;;;;;;;21.30;67.00;;;;;;5047717;28;19996;-71
2022/09/13 12:37:06;;;;;;;;;;;21.40;66.90;;;;;;5043818;28;19982;-70
2022/09/13 12:39:37;;;;;;;;;;;21.40;66.70;;;;;;5027516;28;20352;-70
2022/09/13 12:42:15;;;;;;;;;;;21.50;66.50;;;;;;5047073;28;20030;-70
2022/09/13 12:44:49;;;;;;;;;;;21.60;66.40;;;;;;5039832;28;20002;-70
2022/09/13 12:47:21;;;;;;;;;;;21.60;66.30;;;;;;5041423;28;20045;-68
2022/09/13 12:49:56;;;;;;;;;;;21.70;66.20;;;;;;5044217;28;19976;-70
2022/09/13 12:52:30;;;;;;;;;;;21.70;66.10;;;;;;5043403;28;19979;-70
2022/09/13 12:55:20;;;;;;;;;;;21.70;66.00;;;;;;5037398;28;21246;-75
2022/09/13 12:57:49;;;;;;;;;;;21.80;65.90;;;;;;5039300;28;20010;-76
2022/09/13 13:00:21;;;;;;;;;;;21.90;65.80;;;;;;5039731;28;19980;-75
2022/09/13 13:02:53;;;;;;;;;;;21.90;65.70;;;;;;5040154;28;20398;-77
2022/09/13 13:05:23;;;;;;;;;;;21.90;65.60;;;;;;5033985;28;20418;-76
2022/09/13 13:07:52;;;;;;;;;;;22.00;65.60;;;;;;5037484;28;19979;-76
2022/09/13 13:10:30;;;;;;;;;;;22.00;65.50;;;;;;5038621;28;19980;-75
2022/09/13 13:12:57;;;;;;;;;;;22.00;65.60;;;;;;5040377;28;20514;-77
2022/09/13 13:15:43;;;;;;;;;;;22.10;65.50;;;;;;5040465;28;19996;-75
2022/09/13 13:18:27;;;;;;;;;;;22.10;65.50;;;;;;5038535;28;19982;-76
2022/09/13 13:21:06;;;;;;;;;;;22.10;65.30;;;;;;5038833;28;19997;-76
2022/09/13 13:23:34;;;;;;;;;;;22.20;65.40;;;;;;5036238;28;19999;-75
2022/09/13 13:26:04;;;;;;;;;;;22.30;65.20;;;;;;5038639;28;19976;-76
2022/09/13 13:29:03;;;;;;;;;;;22.30;65.00;;;;;;5041021;28;19987;-76
2022/09/13 13:31:37;;;;;;;;;;;22.40;65.10;;;;;;5038755;28;19992;-76
2022/09/13 13:34:23;;;;;;;;;;;22.50;64.90;;;;;;5040832;28;19992;-77
2022/09/13 13:36:57;;;;;;;;;;;22.50;64.70;;;;;;5036871;28;19980;-78
2022/09/13 13:39:41;;;;;;;;;;;22.60;64.50;;;;;;5039220;28;19983;-76
2022/09/13 13:42:12;;;;;;;;;;;22.60;64.30;;;;;;5037849;28;20515;-75
2022/09/13 13:44:57;;;;;;;;;;;22.70;64.20;;;;;;5038716;28;20035;-76
2022/09/13 13:47:52;;;;;;;;;;;22.80;64.10;;;;;;5036609;28;20022;-78
2022/09/13 13:50:19;;;;;;;;;;;22.80;63.60;;;;;;5037732;28;20744;-76
2022/09/13 13:52:54;;;;;;;;;;;22.90;63.60;;;;;;5038759;28;19979;-76
2022/09/13 13:55:28;;;;;;;;;;;23.00;63.50;;;;;;5035497;28;20002;-77
2022/09/13 13:57:59;;;;;;;;;;;23.10;63.30;;;;;;5038605;28;20022;-77
2022/09/13 14:00:28;;;;;;;;;;;23.10;63.20;;;;;;5036834;28;20003;-76
2022/09/13 14:02:58;;;;;;;;;;;23.20;63.00;;;;;;5038535;28;19979;-76
2022/09/13 14:05:29;;;;;;;;;;;23.20;62.90;;;;;;5038643;28;19999;-76
2022/09/13 14:08:07;;;;;;;;;;;23.30;62.50;;;;;;5037245;28;19975;-76
2022/09/13 14:10:43;;;;;;;;;;;23.40;62.70;;;;;;5040830;28;19980;-76
2022/09/13 14:13:17;;;;;;;;;;;23.40;62.50;;;;;;5039182;28;19983;-76
2022/09/13 14:15:49;;;;;;;;;;;23.50;62.30;;;;;;5038279;28;19998;-75
2022/09/13 14:18:40;;;;;;;;;;;23.50;62.90;;;;;;5039615;28;19983;-73
2022/09/13 14:21:18;;;;;;;;;;;23.50;62.10;;;;;;5040550;28;19990;-76
2022/09/13 14:23:46;;;;;;;;;;;23.60;61.90;;;;;;5041772;28;19992;-76
2022/09/13 14:26:12;;;;;;;;;;;23.60;61.70;;;;;;5041156;28;19980;-76
2022/09/13 14:28:39;;;;;;;;;;;23.70;61.60;;;;;;5044041;28;20650;-75
2022/09/13 14:31:06;;;;;;;;;;;23.70;61.50;;;;;;5042553;28;19995;-77
2022/09/13 14:33:34;;;;;;;;;;;23.80;61.50;;;;;;5032038;28;20025;-73
2022/09/13 14:36:02;;;;;;;;;;;23.80;61.30;;;;;;5036894;28;19990;-76